createdAt,value
2022-08-07T00:00:29.966Z,5.00
2022-08-07T00:02:57.068Z,4.80
2022-08-07T00:05:24.983Z,5.22
2022-08-07T00:07:59.810Z,4.70
2022-08-07T00:10:31.073Z,5.20
2022-08-07T00:13:09.745Z,5.30
2022-08-07T00:15:52.178Z,4.70
2022-08-07T00:18:24.609Z,4.90
2022-08-07T00:20:57.399Z,3.80
2022-08-07T00:23:28.570Z,4.10
2022-08-07T00:26:01.602Z,4.53
2022-08-07T00:28:34.066Z,4.95
2022-08-07T00:31:12.244Z,5.05
2022-08-07T00:33:41.015Z,5.28
2022-08-07T00:36:08.919Z,4.53
2022-08-07T00:38:39.007Z,4.88
2022-08-07T00:41:09.981Z,4.75
2022-08-07T00:44:02.024Z,5.57
2022-08-07T00:46:28.393Z,6.05
2022-08-07T00:48:55.276Z,7.20
2022-08-07T00:51:22.205Z,6.57
2022-08-07T00:53:55.299Z,7.63
2022-08-07T00:56:30.328Z,7.35
2022-08-07T00:58:57.745Z,6.63
2022-08-07T01:01:24.892Z,7.07
2022-08-07T01:03:55.830Z,5.35
2022-08-07T01:06:28.681Z,5.72
2022-08-07T01:09:00.579Z,6.45
2022-08-07T01:12:10.211Z,7.28
2022-08-07T01:14:17.407Z,5.60
2022-08-07T01:16:49.223Z,0.63
2022-08-07T01:19:18.814Z,0.65
2022-08-07T01:21:48.312Z,1.20
2022-08-07T01:24:21.485Z,1.65
2022-08-07T01:26:52.110Z,1.80
2022-08-07T01:29:22.688Z,2.95
2022-08-07T01:31:50.917Z,3.10
2022-08-07T01:34:18.804Z,2.92
2022-08-07T01:36:52.620Z,3.53
2022-08-07T01:39:39.660Z,3.25
2022-08-07T01:42:38.210Z,3.33
2022-08-07T01:44:54.785Z,3.30
2022-08-07T01:48:17.678Z,3.10
2022-08-07T01:50:09.824Z,3.85
2022-08-07T01:52:49.309Z,3.50
2022-08-07T01:55:22.401Z,3.10
2022-08-07T01:58:06.174Z,3.65
2022-08-07T02:03:24.934Z,2.75
2022-08-07T02:06:00.958Z,3.45
2022-08-07T02:08:30.953Z,3.72
2022-08-07T02:10:59.843Z,4.00
2022-08-07T02:13:57.513Z,4.00
2022-08-07T02:16:19.991Z,2.42
2022-08-07T02:18:56.397Z,2.92
2022-08-07T02:21:24.983Z,3.30
2022-08-07T02:23:53.457Z,4.95
2022-08-07T02:26:33.093Z,5.05
2022-08-07T02:29:06.402Z,6.27
2022-08-07T02:31:41.245Z,5.40
2022-08-07T02:34:11.307Z,4.97
2022-08-07T02:36:45.980Z,7.45
2022-08-07T02:39:17.545Z,6.88
2022-08-07T02:42:03.673Z,6.22
2022-08-07T02:44:45.799Z,6.55
2022-08-07T02:47:19.453Z,8.20
2022-08-07T02:49:56.157Z,7.55
2022-08-07T02:52:38.868Z,7.97
2022-08-07T02:55:28.549Z,8.00
2022-08-07T02:58:13.834Z,6.57
2022-08-07T03:00:46.714Z,5.80
2022-08-07T03:03:22.664Z,6.57
2022-08-07T03:05:53.670Z,7.30
2022-08-07T03:08:26.825Z,4.88
2022-08-07T03:10:57.725Z,4.53
2022-08-07T03:13:25.595Z,4.57
2022-08-07T03:15:56.318Z,4.47
2022-08-07T03:18:34.892Z,3.42
2022-08-07T03:21:08.664Z,4.25
2022-08-07T03:24:20.897Z,2.20
2022-08-07T03:26:32.087Z,3.20
2022-08-07T03:31:43.288Z,3.20
2022-08-07T03:34:18.794Z,3.67
2022-08-07T03:36:52.881Z,4.03
2022-08-07T03:39:46.084Z,2.80
2022-08-07T03:42:08.569Z,2.95
2022-08-07T03:44:37.887Z,2.72
2022-08-07T03:47:10.893Z,2.80
2022-08-07T03:49:39.576Z,2.60
2022-08-07T03:52:22.248Z,2.67
2022-08-07T03:54:55.130Z,2.88
2022-08-07T03:58:34.820Z,3.33
2022-08-07T04:00:14.807Z,4.38
2022-08-07T04:02:47.169Z,4.55
2022-08-07T04:05:14.637Z,5.07
2022-08-07T04:07:47.656Z,5.18
2022-08-07T04:10:19.563Z,5.10
2022-08-07T04:15:16.190Z,5.32
2022-08-07T04:18:57.334Z,7.10
2022-08-07T04:20:31.840Z,7.78
2022-08-07T04:23:06.376Z,7.27
2022-08-07T04:25:39.067Z,7.90
2022-08-07T04:28:13.373Z,8.18
2022-08-07T04:30:55.591Z,7.03
2022-08-07T04:33:26.902Z,6.85
2022-08-07T04:35:55.283Z,5.63
2022-08-07T04:38:26.065Z,7.35
2022-08-07T04:40:56.730Z,7.55
2022-08-07T04:44:09.922Z,5.38
2022-08-07T04:46:34.702Z,4.38
2022-08-07T04:49:18.282Z,3.50
2022-08-07T04:52:06.554Z,7.85
2022-08-07T04:54:36.766Z,3.40
2022-08-07T04:58:15.550Z,3.70
2022-08-07T05:00:11.269Z,3.15
2022-08-07T05:03:59.921Z,3.25
2022-08-07T05:06:19.278Z,3.83
2022-08-07T05:09:02.462Z,4.10
2022-08-07T05:11:57.923Z,6.43
2022-08-07T05:14:52.748Z,4.05
2022-08-07T05:18:00.374Z,4.38
2022-08-07T05:20:10.132Z,4.20
2022-08-07T05:22:39.513Z,4.55
2022-08-07T05:25:11.560Z,4.40
2022-08-07T05:28:03.183Z,3.75
2022-08-07T05:30:42.531Z,8.50
2022-08-07T05:33:13.086Z,2.03
2022-08-07T05:35:42.790Z,2.58
2022-08-07T05:38:11.586Z,3.00
2022-08-07T05:40:50.650Z,3.50
2022-08-07T05:43:19.047Z,2.70
2022-08-07T05:45:48.369Z,2.60
2022-08-07T05:48:16.589Z,3.10
2022-08-07T05:50:43.826Z,3.20
2022-08-07T05:54:12.226Z,3.08
2022-08-07T05:56:02.962Z,2.63
2022-08-07T05:58:36.864Z,2.30
2022-08-07T06:01:10.473Z,2.80
2022-08-07T06:03:53.392Z,2.13
2022-08-07T06:06:29.338Z,2.30
2022-08-07T06:08:57.363Z,2.28
2022-08-07T06:11:25.584Z,2.00
2022-08-07T06:14:12.437Z,1.83
2022-08-07T06:16:44.155Z,1.40
2022-08-07T06:19:57.552Z,1.58
2022-08-07T06:22:15.416Z,1.38
2022-08-07T06:24:57.852Z,1.27
2022-08-07T06:28:00.137Z,1.55
2022-08-07T06:30:36.021Z,1.30
2022-08-07T06:33:00.993Z,1.50
2022-08-07T06:35:39.081Z,1.77
2022-08-07T06:38:19.306Z,1.50
2022-08-07T06:40:51.894Z,1.20
2022-08-07T06:43:23.768Z,1.42
2022-08-07T06:45:51.623Z,1.70
2022-08-07T06:48:24.675Z,1.58
2022-08-07T06:50:55.081Z,1.52
2022-08-07T06:55:27.987Z,1.42
2022-08-07T06:56:15.446Z,1.25
2022-08-07T07:01:33.174Z,1.20
2022-08-07T07:04:32.856Z,1.45
2022-08-07T07:07:01.711Z,1.60
2022-08-07T07:09:31.391Z,1.50
2022-08-07T07:12:19.642Z,1.40
2022-08-07T07:15:03.816Z,1.30
2022-08-07T07:18:14.357Z,1.23
2022-08-07T07:20:46.012Z,1.30
2022-08-07T07:24:06.609Z,1.30
2022-08-07T07:26:33.146Z,1.30
2022-08-07T07:29:56.258Z,1.70
2022-08-07T07:31:55.618Z,1.20
2022-08-07T07:34:31.179Z,1.17
2022-08-07T07:37:14.595Z,1.58
2022-08-07T07:39:54.799Z,1.95
2022-08-07T07:42:33.070Z,2.50
2022-08-07T07:45:05.543Z,2.10
2022-08-07T07:47:42.890Z,2.53
2022-08-07T07:50:34.218Z,2.92
2022-08-07T07:53:13.513Z,2.53
2022-08-07T07:55:54.861Z,2.58
2022-08-07T07:58:36.973Z,2.53
2022-08-07T08:02:02.431Z,2.30
2022-08-07T08:04:10.705Z,2.67
2022-08-07T08:06:48.132Z,2.90
2022-08-07T08:09:22.716Z,2.45
2022-08-07T08:12:02.577Z,1.88
2022-08-07T08:14:34.527Z,2.10
2022-08-07T08:17:56.059Z,1.75
2022-08-07T08:20:17.399Z,1.95
2022-08-07T08:23:09.306Z,2.30
2022-08-07T08:26:03.308Z,1.67
2022-08-07T08:28:39.190Z,1.60
2022-08-07T08:31:22.653Z,1.88
2022-08-07T08:33:55.563Z,1.27
2022-08-07T08:36:29.769Z,1.30
2022-08-07T08:39:01.758Z,1.35
2022-08-07T08:41:59.567Z,1.33
2022-08-07T08:44:44.501Z,1.20
2022-08-07T08:47:52.871Z,1.80
2022-08-07T08:50:34.750Z,1.60
2022-08-07T08:53:26.536Z,1.70
2022-08-07T08:56:37.614Z,1.55
2022-08-07T08:59:25.745Z,1.50
2022-08-07T09:02:41.870Z,1.20
2022-08-07T09:05:37.752Z,1.20
2022-08-07T09:08:29.336Z,1.30
2022-08-07T09:11:24.237Z,1.10
2022-08-07T09:14:15.257Z,1.00
2022-08-07T09:16:47.990Z,1.10
2022-08-07T09:19:52.704Z,0.93
2022-08-07T09:24:28.983Z,0.90
2022-08-07T09:25:34.119Z,0.98
2022-08-07T09:30:00.452Z,1.20
2022-08-07T09:31:24.854Z,1.10
2022-08-07T09:34:10.114Z,1.05
2022-08-07T09:37:03.336Z,0.80
2022-08-07T09:39:54.353Z,0.75
2022-08-07T09:42:39.266Z,1.00
2022-08-07T09:47:23.434Z,0.80
2022-08-07T09:48:15.106Z,0.90
2022-08-07T09:53:48.906Z,0.70
2022-08-07T09:56:34.086Z,0.70
2022-08-07T09:59:44.642Z,0.80
2022-08-07T10:02:55.106Z,0.90
2022-08-07T10:05:59.593Z,1.17
2022-08-07T10:08:44.409Z,0.90
2022-08-07T10:12:02.067Z,1.40
2022-08-07T10:14:30.301Z,1.40
2022-08-07T10:17:25.007Z,1.25
2022-08-07T10:20:00.966Z,1.10
2022-08-07T10:22:54.840Z,0.93
2022-08-07T10:25:43.700Z,0.98
2022-08-07T10:28:36.040Z,0.98
2022-08-07T10:31:38.970Z,1.00
2022-08-07T10:34:27.032Z,1.02
2022-08-07T10:37:05.756Z,0.95
2022-08-07T10:40:03.271Z,0.98
2022-08-07T10:43:13.872Z,1.00
2022-08-07T10:45:58.021Z,1.02
2022-08-07T10:48:35.226Z,0.80
2022-08-07T10:51:39.457Z,0.80
2022-08-07T10:54:41.128Z,0.63
2022-08-07T10:57:34.141Z,0.70
2022-08-07T11:00:05.173Z,0.80
2022-08-07T11:02:49.104Z,0.70
2022-08-07T11:05:48.902Z,1.00
2022-08-07T11:08:46.746Z,0.82
2022-08-07T11:11:27.935Z,0.70
2022-08-07T11:14:57.067Z,0.75
2022-08-07T11:17:45.577Z,0.57
2022-08-07T11:20:25.892Z,1.15
2022-08-07T11:23:30.696Z,0.73
2022-08-07T11:26:17.852Z,0.70
2022-08-07T11:28:55.607Z,1.80
2022-08-07T11:31:35.073Z,1.15
2022-08-07T11:34:16.313Z,0.90
2022-08-07T11:39:58.981Z,0.68
2022-08-07T11:43:02.553Z,1.08
2022-08-07T11:46:09.372Z,0.95
2022-08-07T11:49:50.439Z,0.70
2022-08-07T11:52:29.366Z,0.80
2022-08-07T11:58:21.191Z,0.50
2022-08-07T12:01:22.061Z,0.82
2022-08-07T12:03:58.709Z,0.77
2022-08-07T12:07:00.423Z,0.70
2022-08-07T12:09:36.465Z,0.88
2022-08-07T12:12:13.763Z,0.98
2022-08-07T12:15:02.096Z,0.80
2022-08-07T12:17:59.774Z,0.50
2022-08-07T12:20:49.104Z,0.70
2022-08-07T12:23:37.311Z,0.80
2022-08-07T12:26:23.461Z,0.80
2022-08-07T12:28:59.135Z,0.90
2022-08-07T12:31:52.371Z,1.00
2022-08-07T12:34:26.682Z,0.70
2022-08-07T12:36:56.614Z,0.65
2022-08-07T12:39:43.051Z,0.80
2022-08-07T12:42:13.561Z,0.60
2022-08-07T12:44:46.696Z,0.60
2022-08-07T12:47:39.855Z,0.60
2022-08-07T12:50:40.197Z,0.77
2022-08-07T12:54:03.321Z,0.70
2022-08-07T12:56:41.558Z,0.88
2022-08-07T13:02:03.350Z,0.63
2022-08-07T13:05:10.325Z,0.60
2022-08-07T13:08:14.442Z,0.60
2022-08-07T13:11:02.122Z,0.60
2022-08-07T13:13:51.971Z,0.60
2022-08-07T13:17:02.670Z,0.60
2022-08-07T13:19:50.987Z,0.52
2022-08-07T13:22:33.164Z,0.80
2022-08-07T13:25:15.232Z,0.40
2022-08-07T13:28:11.676Z,0.50
2022-08-07T13:30:48.991Z,0.60
2022-08-07T13:34:30.462Z,0.60
2022-08-07T13:36:30.981Z,0.57
2022-08-07T13:39:05.013Z,0.60
2022-08-07T13:41:47.463Z,0.82
2022-08-07T13:44:26.120Z,0.60
2022-08-07T13:46:59.502Z,0.70
2022-08-07T13:50:35.818Z,0.60
2022-08-07T13:52:31.655Z,0.60
2022-08-07T13:55:07.446Z,0.50
2022-08-07T13:57:59.287Z,0.70
2022-08-07T14:00:39.609Z,0.63
2022-08-07T14:03:29.529Z,0.70
2022-08-07T14:06:12.889Z,0.70
2022-08-07T14:08:54.564Z,0.70
2022-08-07T14:11:23.529Z,0.68
2022-08-07T14:13:58.261Z,0.80
2022-08-07T14:16:31.916Z,0.60
2022-08-07T14:19:01.624Z,0.40
2022-08-07T14:24:34.213Z,0.70
2022-08-07T14:28:09.662Z,0.60
2022-08-07T14:30:07.762Z,0.80
2022-08-07T14:32:47.480Z,0.40
2022-08-07T14:35:43.329Z,0.70
2022-08-07T14:38:26.552Z,0.50
2022-08-07T14:41:03.892Z,0.57
2022-08-07T14:49:55.670Z,0.63
2022-08-07T14:52:03.730Z,0.90
2022-08-07T14:54:49.782Z,0.60
2022-08-07T14:57:25.398Z,0.60
2022-08-07T15:00:13.005Z,0.82
2022-08-07T15:03:00.296Z,0.50
2022-08-07T15:05:54.799Z,0.60
2022-08-07T15:08:54.720Z,0.75
2022-08-07T15:11:52.886Z,0.40
2022-08-07T15:14:22.415Z,0.50
2022-08-07T15:20:33.927Z,0.60
2022-08-07T15:22:53.554Z,0.70
2022-08-07T15:28:34.885Z,0.60
2022-08-07T15:31:12.297Z,0.80
2022-08-07T15:37:03.827Z,0.80
2022-08-07T15:39:16.893Z,0.55
2022-08-07T15:42:43.798Z,0.60
2022-08-07T15:44:51.672Z,0.70
2022-08-07T15:47:21.677Z,0.60
2022-08-07T15:53:13.835Z,0.60
2022-08-07T15:55:53.405Z,0.68
2022-08-07T15:58:52.170Z,0.70
2022-08-07T16:01:38.662Z,0.80
2022-08-07T16:04:14.548Z,0.55
2022-08-07T16:06:59.448Z,0.50
2022-08-07T16:09:41.897Z,0.55
2022-08-07T16:12:39.141Z,0.40
2022-08-07T16:15:57.335Z,0.45
2022-08-07T16:18:49.534Z,0.55
2022-08-07T16:22:02.116Z,0.40
2022-08-07T16:24:37.639Z,0.40
2022-08-07T16:27:23.786Z,0.50
2022-08-07T16:30:30.511Z,0.60
2022-08-07T16:34:02.931Z,0.45
2022-08-07T16:36:31.316Z,0.60
2022-08-07T16:39:04.814Z,0.70
2022-08-07T16:41:54.043Z,0.60
2022-08-07T16:45:14.373Z,0.90
2022-08-07T16:47:56.490Z,0.52
2022-08-07T16:50:52.561Z,0.80
2022-08-07T16:54:06.463Z,0.60
2022-08-07T16:56:54.315Z,0.50
2022-08-07T16:59:47.157Z,0.60
2022-08-07T17:02:51.206Z,0.60
2022-08-07T17:06:19.669Z,0.60
2022-08-07T17:09:08.651Z,0.70
2022-08-07T17:12:03.980Z,0.50
2022-08-07T17:14:36.459Z,0.70
2022-08-07T17:17:14.250Z,0.60
2022-08-07T17:20:01.605Z,0.85
2022-08-07T17:22:38.624Z,0.80
2022-08-07T17:25:47.458Z,0.80
2022-08-07T17:28:49.675Z,0.65
2022-08-07T17:31:23.306Z,0.73
2022-08-07T17:34:15.114Z,0.88
2022-08-07T17:36:59.962Z,0.60
2022-08-07T17:39:57.655Z,0.45
2022-08-07T17:42:59.371Z,0.47
2022-08-07T17:45:38.416Z,0.70
2022-08-07T17:48:30.782Z,0.50
2022-08-07T17:51:59.882Z,0.50
2022-08-07T17:54:53.252Z,0.50
2022-08-07T17:57:58.711Z,0.77
2022-08-07T18:00:34.260Z,0.70
2022-08-07T18:03:10.585Z,0.80
2022-08-07T18:06:09.408Z,0.73
2022-08-07T18:09:01.993Z,0.73
2022-08-07T18:12:16.506Z,0.88
2022-08-07T18:14:46.101Z,0.88
2022-08-07T18:18:46.910Z,1.00
2022-08-07T18:21:40.130Z,0.70
2022-08-07T18:24:06.875Z,0.57
2022-08-07T18:27:01.586Z,1.02
2022-08-07T18:30:08.031Z,0.80
2022-08-07T18:33:10.756Z,0.65
2022-08-07T18:35:51.452Z,0.70
2022-08-07T18:38:58.988Z,0.88
2022-08-07T18:41:55.497Z,0.95
2022-08-07T18:44:27.080Z,0.75
2022-08-07T18:47:10.421Z,0.85
2022-08-07T18:50:39.315Z,1.00
2022-08-07T18:53:40.209Z,0.77
2022-08-07T18:56:13.402Z,0.70
2022-08-07T18:59:47.086Z,0.90
2022-08-07T19:02:45.520Z,0.65
2022-08-07T19:05:25.928Z,0.90
2022-08-07T19:08:21.764Z,0.98
2022-08-07T19:10:59.618Z,1.02
2022-08-07T19:13:37.418Z,0.98
2022-08-07T19:17:01.215Z,0.80
2022-08-07T19:19:28.029Z,0.88
2022-08-07T19:22:08.396Z,0.90
2022-08-07T19:24:48.040Z,1.08
2022-08-07T19:29:02.950Z,0.90
2022-08-07T19:31:03.916Z,1.00
2022-08-07T19:33:13.435Z,1.05
2022-08-07T19:35:46.696Z,1.13
2022-08-07T19:38:17.829Z,1.00
2022-08-07T19:40:50.555Z,0.90
2022-08-07T19:43:49.184Z,1.00
2022-08-07T19:46:29.060Z,1.17
2022-08-07T19:49:07.631Z,1.20
2022-08-07T19:51:52.229Z,1.10
2022-08-07T19:54:32.370Z,1.05
2022-08-07T19:58:00.891Z,1.05
2022-08-07T19:59:58.420Z,1.42
2022-08-07T20:02:31.633Z,1.20
2022-08-07T20:05:03.636Z,1.55
2022-08-07T20:07:46.056Z,1.30
2022-08-07T20:10:35.353Z,1.15
2022-08-07T20:13:41.859Z,1.20
2022-08-07T20:16:32.127Z,0.93
2022-08-07T20:19:00.195Z,1.20
2022-08-07T20:21:42.119Z,1.58
2022-08-07T20:24:28.438Z,1.33
2022-08-07T20:26:59.161Z,1.55
2022-08-07T20:29:47.722Z,1.90
2022-08-07T20:32:39.744Z,1.30
2022-08-07T20:35:22.008Z,1.35
2022-08-07T20:37:59.299Z,2.47
2022-08-07T20:40:32.591Z,1.92
2022-08-07T20:43:03.317Z,1.55
2022-08-07T20:46:27.450Z,1.63
2022-08-07T20:48:28.576Z,1.70
2022-08-07T20:51:00.320Z,1.73
2022-08-07T20:54:04.369Z,1.77
2022-08-07T20:56:16.869Z,2.15
2022-08-07T20:58:55.745Z,2.10
2022-08-07T21:01:29.764Z,1.90
2022-08-07T21:04:21.732Z,1.77
2022-08-07T21:06:55.128Z,1.83
2022-08-07T21:09:29.249Z,2.25
2022-08-07T21:12:14.936Z,2.47
2022-08-07T21:14:48.507Z,2.00
2022-08-07T21:18:02.710Z,1.85
2022-08-07T21:20:26.451Z,1.48
2022-08-07T21:22:57.515Z,2.55
2022-08-07T21:25:56.872Z,2.10
2022-08-07T21:28:49.938Z,2.38
2022-08-07T21:32:42.673Z,2.28
2022-08-07T21:34:48.693Z,2.40
2022-08-07T21:37:24.010Z,2.38
2022-08-07T21:39:59.897Z,2.33
2022-08-07T21:42:42.376Z,2.70
2022-08-07T21:46:08.559Z,2.42
2022-08-07T21:48:28.768Z,2.83
2022-08-07T21:51:08.184Z,2.20
2022-08-07T21:53:52.924Z,2.20
2022-08-07T21:56:51.936Z,2.83
2022-08-07T21:59:36.344Z,2.10
2022-08-07T22:02:30.910Z,2.70
2022-08-07T22:05:00.398Z,3.05
2022-08-07T22:07:31.437Z,2.65
2022-08-07T22:10:12.167Z,2.90
2022-08-07T22:12:53.140Z,2.55
2022-08-07T22:16:38.450Z,2.60
2022-08-07T22:18:37.404Z,2.70
2022-08-07T22:22:04.297Z,2.50
2022-08-07T22:24:19.989Z,2.88
2022-08-07T22:26:55.486Z,3.00
2022-08-07T22:29:47.434Z,3.25
2022-08-07T22:32:38.053Z,3.00
2022-08-07T22:35:11.051Z,2.70
2022-08-07T22:38:05.441Z,2.88
2022-08-07T22:41:10.268Z,2.90
2022-08-07T22:43:43.638Z,3.00
2022-08-07T22:47:02.462Z,3.33
2022-08-07T22:49:16.449Z,3.50
2022-08-07T22:51:57.546Z,3.53
2022-08-07T22:54:49.063Z,3.70
2022-08-07T22:57:34.256Z,4.00
2022-08-07T23:00:44.035Z,4.35
2022-08-07T23:03:18.140Z,3.30
2022-08-07T23:06:18.386Z,2.80
2022-08-07T23:10:06.381Z,3.20
2022-08-07T23:11:49.479Z,2.80
2022-08-07T23:14:41.114Z,1.95
2022-08-07T23:17:26.395Z,4.47
2022-08-07T23:20:51.633Z,3.78
2022-08-07T23:24:06.085Z,3.60
2022-08-07T23:26:26.262Z,2.88
2022-08-07T23:30:36.111Z,2.30
2022-08-07T23:34:18.848Z,3.10
2022-08-07T23:35:27.434Z,2.33
2022-08-07T23:38:42.789Z,2.30
2022-08-07T23:42:01.731Z,2.38
2022-08-07T23:44:52.995Z,3.60
2022-08-07T23:47:48.001Z,3.25
2022-08-07T23:50:24.236Z,2.92
2022-08-07T23:53:17.190Z,2.38
2022-08-07T23:56:01.931Z,2.22
2022-08-07T23:58:45.239Z,2.40
